GMFM

Bassatine Airport

Meknes, Morocco
METAR GMFM 241100Z 18003KT CAVOK 35/08 Q1020 NOSIG
Observed Flight Rules
Sep-24 @ 11:00 UTC (47 minutes ago) Visual Flight Rules
Wind Visibility Clouds
180° at 3 knots 10,000+ meters
  • Clear skies
Temperatures Readings
Current 35°C / 95°F
Dewpoint 8°C / 46°F
Humidity 19%
Altimeter 30.12" Hg
Pressure 1020 hPa
Elevation 549
METAR GMFM 241100Z 18003KT CAVOK 35/08 Q1020 NOSIG
Observed Flight Rules
Sep-24 @ 11:00 UTC
(47 minutes ago)
VFR
Wind Visibility
180° at 3 knots 10,000+ meters
Clouds
  • Clear skies
Temperature Dewpoint
35°C / 95°F 8°C / 46°F
Humidity Altimeter Pressure
19% 30.12" Hg 1020 hPa